Airfield :







YOU CAN JOIN US ON...

 
LOGIN :

Register | Disclaimer

   EN    FR    IT 

 









Legend :    VFR   Marginal VFR   IFR   Intensive IFR   Very Intensive IFR
Visi :
Ceiling :
>= 8 km
>= 3000ft
5 to 8 km
1000 to 3000 ft
1500m to 5 km
500 to 1000 ft
800 to 1500m
200 to 500 ft
< 800m
< 200 ft
Symbols :   Thunderstorms  Fog  Heavy snow  Heavy precipitations  Wind > 20 kt







- Airport Elevation : 285 ft
- IATA code : ALB


KALB - Albany International

CURRENT METAR :
  • 191351Z 17008KT 10SM OVC010 24/20 A2987 RMK AO2 SLP114 T02390200

EXPIRED METARs :
  • 191318Z 17008KT 10SM OVC010 23/19 A2988 RMK AO2 T02330194
  • 191251Z 16008KT 10SM BKN009 BKN022 23/19 A2988 RMK AO2 SLP117 T02330194
  • 191234Z 17009KT 10SM BKN009 BKN022 23/19 A2988 RMK AO2 BKN009 V SCT T02330194
  • 191221Z 16008KT 10SM SCT009 BKN022 23/19 A2988 RMK AO2 SCT V BKN T02280194
  • 191151Z 17009KT 10SM FEW018 BKN022 23/19 A2989 RMK AO2 SLP118 BKN V OVC 70001 T02280189 10228 20222 55001

TAF KALB
Valid from the 19 at 13:00 until the 20 at 12:00 UTC


191240Z 1913/2012 17007KT P6SM SCT009 BKN022
TEMPO 1913/1914 BKN009
FM191400 20008KT P6SM SCT025 BKN040
FM191800 24011G18KT P6SM BKN050
TEMPO 1921/2001 3SM TSRA BR OVC025CB
FM200100 21005KT P6SM SCT050 BKN120
FM200800 19004KT P6SM SCT020
KZBW FIR / North America



MET'MAP, your aeronautical weather chart ! - Copyright ORBIFLY December 2007 - Disclaimer

ORBIFLY MET'MAP TEAM :

Programming & Development : Alexandra Zaïnal
Concept & Development : Baudouin d'Aumeries
Co-Development & Prog : Marc-Olivier Méhu
Technical & hardware support : Manuel Goepfert

Contact : metmap@orbifly.com




SOURCES & CREDITS :

   NOAA